Pagrindinis puslapis
METAR-TAF:

METAR-TAF

Oro uostai :

Lapenranta, Suomija

platuma: 61-02-45N, ilguma: 028-08-55E, Aukštis: 106 m

Dabartinis oras

Ataskaita buvo paskelbta 13 minutes, ne 02:20 UTC
Vėjas 7 kt iš Vakarų, svyruoja nuo Pietvakarių ir Šiaurės Vakarų
Temperatūra 12°C
Drėgmė 94%
Slėgis 1015 hPa
Matomumas 10 km arba daugiau
Apsiniaukę ne aukštis 500 ft

METAR: EFLP 240220Z AUTO 26007KT 220V310 9999 OVC005 12/11 Q1015

Laikas: 05:33 (02:33 UTC)

Prognozė

Ataskaita buvo paskelbta 20 valandos ir 57 minutes, ne 05:36 UTC
Prognozė galioja nuo 23 metu 06 UTC su 23 metu 09 UTC
Vėjas 7 kt iš Pietų/Pietvakarių
Matomumas 10 km arba daugiau
Mažai debesys ne aukštis 1000 ft
Su prošvaistėmis ne aukštis 4500 ft
Laikinai
nuo 23 metu 06 UTC su 23 metu 09 UTC
Matomumas: 5000 m
Su prošvaistėmis ne aukštis 900 ft
Su prošvaistėmis ne aukštis 3500 ft, Liūtiniai kamuoliniai debesys.
lietus
Tikimybė 30%
nuo 23 metu 06 UTC su 23 metu 09 UTC
perkūnija

TAF: EFLP 230536Z 2306/2309 20007KT 9999 FEW010 BKN045 TEMPO 2306/2309 5000 SHRA BKN009 BKN035CB PROB30 2306/2309 TS

Orai ataskaitas ir orų prognozės (METAR, TAF).

turimą stotys yra geltonos ir raudonos taškus žemėlapyje.

Perkelti pele per norėdami pamatyti stoties vardą.

Tada spustelėkite, norėdami matyti oro stebėjimo ir prognozės.

Norėdami pakeisti žemėlapį: spustelėkite ant žalios mygtukų su juodo kryžiaus žemyn,; žalią mygtuką su brūkšneliu, jei norite nutolinti; arba žalių rodyklių gretimoms žemėlapius.


METAR-TAF: